createdAt,value
2019-03-03T00:02:10.995Z,74.00
2019-03-03T00:04:41.163Z,73.98
2019-03-03T00:07:11.835Z,74.02
2019-03-03T00:09:42.078Z,74.10
2019-03-03T00:12:12.230Z,74.03
2019-03-03T00:14:42.309Z,74.05
2019-03-03T00:17:12.660Z,73.99
2019-03-03T00:19:42.897Z,73.94
2019-03-03T00:22:13.070Z,73.96
2019-03-03T00:24:43.349Z,74.01
2019-03-03T00:27:13.594Z,73.98
2019-03-03T00:29:43.748Z,73.59
2019-03-03T00:32:14.027Z,73.70
2019-03-03T00:34:44.161Z,73.76
2019-03-03T00:37:25.764Z,73.78
2019-03-03T00:40:27.044Z,73.79
2019-03-03T00:43:14.483Z,73.85
2019-03-03T00:45:54.251Z,73.89
2019-03-03T00:48:33.759Z,73.92
2019-03-03T00:51:21.415Z,73.84
2019-03-03T00:54:10.974Z,73.45
2019-03-03T00:56:51.693Z,73.56
2019-03-03T00:59:40.748Z,73.59
2019-03-03T01:02:24.025Z,73.51
2019-03-03T01:05:19.175Z,73.48
2019-03-03T01:08:23.787Z,73.44
2019-03-03T01:11:15.600Z,73.46
2019-03-03T01:14:07.696Z,73.42
2019-03-03T01:17:05.722Z,73.31
2019-03-03T01:19:46.723Z,73.17
2019-03-03T01:22:48.320Z,73.02
2019-03-03T01:25:18.443Z,72.91
2019-03-03T01:27:48.672Z,72.82
2019-03-03T01:30:18.862Z,72.68
2019-03-03T01:32:49.078Z,72.55
2019-03-03T01:35:19.306Z,72.47
2019-03-03T01:37:49.634Z,72.36
2019-03-03T01:40:19.803Z,72.25
2019-03-03T01:42:50.109Z,72.16
2019-03-03T01:45:20.417Z,72.08
2019-03-03T01:47:50.677Z,71.99
2019-03-03T01:50:21.517Z,71.94
2019-03-03T01:52:51.703Z,71.88
2019-03-03T01:55:21.861Z,71.83
2019-03-03T01:57:51.992Z,71.76
2019-03-03T02:00:25.414Z,71.74
2019-03-03T02:02:56.467Z,71.69
2019-03-03T02:05:26.653Z,71.66
2019-03-03T02:07:56.972Z,71.60
2019-03-03T02:10:31.339Z,71.56
2019-03-03T02:13:01.568Z,71.53
2019-03-03T02:15:31.730Z,71.49
2019-03-03T02:18:01.881Z,71.46
2019-03-03T02:20:32.069Z,71.43
2019-03-03T02:23:02.384Z,71.39
2019-03-03T02:25:32.649Z,71.35
2019-03-03T02:28:02.836Z,71.34
2019-03-03T02:30:33.113Z,71.35
2019-03-03T02:33:03.211Z,71.34
2019-03-03T02:35:33.429Z,71.50
2019-03-03T02:38:03.708Z,72.47
2019-03-03T02:40:34.015Z,73.70
2019-03-03T02:43:04.306Z,74.96
2019-03-03T02:45:37.603Z,75.70
2019-03-03T02:48:07.768Z,76.35
2019-03-03T02:50:37.838Z,76.64
2019-03-03T02:53:07.888Z,77.21
2019-03-03T02:55:38.060Z,77.51
2019-03-03T02:58:08.273Z,78.01
2019-03-03T03:00:43.905Z,78.22
2019-03-03T03:03:14.037Z,78.53
2019-03-03T03:06:17.993Z,78.59
2019-03-03T03:09:05.599Z,79.13
2019-03-03T03:11:52.229Z,79.90
2019-03-03T03:14:34.168Z,79.96
2019-03-03T03:17:14.585Z,80.29
2019-03-03T03:20:06.426Z,80.60
2019-03-03T03:22:53.012Z,80.91
2019-03-03T03:25:39.228Z,81.39
2019-03-03T03:28:17.106Z,81.57
2019-03-03T03:30:52.646Z,81.78
2019-03-03T03:33:41.716Z,81.74
2019-03-03T03:36:29.515Z,82.02
2019-03-03T03:39:06.884Z,82.38
2019-03-03T03:41:49.305Z,82.56
2019-03-03T03:44:26.350Z,82.70
2019-03-03T03:47:20.246Z,82.69
2019-03-03T03:50:09.441Z,82.89
2019-03-03T03:53:09.377Z,82.93
2019-03-03T03:56:04.710Z,83.49
2019-03-03T03:58:52.296Z,83.66
2019-03-03T04:01:28.369Z,83.71
2019-03-03T04:04:26.687Z,83.82
2019-03-03T04:07:10.557Z,84.04
2019-03-03T04:09:55.410Z,84.30
2019-03-03T04:12:39.774Z,84.26
2019-03-03T04:15:25.209Z,84.28
2019-03-03T04:18:20.081Z,84.16
2019-03-03T04:21:05.629Z,84.30
2019-03-03T04:23:59.455Z,84.49
2019-03-03T04:26:40.226Z,84.66
2019-03-03T04:29:25.906Z,84.75
2019-03-03T04:32:09.641Z,84.74
2019-03-03T04:35:04.945Z,84.92
2019-03-03T04:37:54.107Z,85.09
2019-03-03T04:40:30.486Z,84.99
2019-03-03T04:43:22.268Z,85.17
2019-03-03T04:46:11.428Z,85.23
2019-03-03T04:48:59.342Z,85.39
2019-03-03T04:51:46.739Z,85.31
2019-03-03T04:54:28.609Z,85.16
2019-03-03T04:57:32.994Z,85.38
2019-03-03T05:00:24.974Z,85.39
2019-03-03T05:03:16.167Z,85.52
2019-03-03T05:05:55.458Z,85.78
2019-03-03T05:08:29.893Z,85.77
2019-03-03T05:11:18.949Z,85.86
2019-03-03T05:13:53.476Z,85.96
2019-03-03T05:16:34.229Z,85.81
2019-03-03T05:19:11.254Z,85.95
2019-03-03T05:21:41.329Z,85.99
2019-03-03T05:24:11.427Z,86.03
2019-03-03T05:26:41.646Z,86.09
2019-03-03T05:29:11.734Z,86.06
2019-03-03T05:31:41.863Z,86.24
2019-03-03T05:34:11.945Z,86.29
2019-03-03T05:36:42.150Z,86.30
2019-03-03T05:39:12.303Z,86.39
2019-03-03T05:41:42.693Z,86.42
2019-03-03T05:44:13.115Z,86.36
2019-03-03T05:46:43.668Z,86.39
2019-03-03T05:49:14.300Z,86.45
2019-03-03T05:51:44.834Z,86.44
2019-03-03T05:54:15.334Z,86.37
2019-03-03T05:56:45.793Z,86.26
2019-03-03T05:59:16.336Z,86.31
2019-03-03T06:01:47.418Z,86.25
2019-03-03T06:04:18.165Z,86.19
2019-03-03T06:06:48.712Z,86.34
2019-03-03T06:09:19.150Z,86.42
2019-03-03T06:11:49.708Z,86.48
2019-03-03T06:14:20.399Z,86.40
2019-03-03T06:16:50.937Z,86.31
2019-03-03T06:19:21.702Z,86.40
2019-03-03T06:21:52.100Z,86.41
2019-03-03T06:24:22.654Z,86.43
2019-03-03T06:26:53.147Z,86.39
2019-03-03T06:29:23.712Z,86.33
2019-03-03T06:31:56.698Z,86.39
2019-03-03T06:34:27.188Z,86.51
2019-03-03T06:36:57.647Z,86.50
2019-03-03T06:39:28.155Z,86.52
2019-03-03T06:41:58.683Z,86.52
2019-03-03T06:44:29.240Z,86.58
2019-03-03T06:46:59.829Z,86.67
2019-03-03T06:49:30.455Z,86.66
2019-03-03T06:52:01.084Z,86.73
2019-03-03T06:54:31.519Z,86.63
2019-03-03T06:57:02.017Z,86.68
2019-03-03T06:59:32.579Z,86.63
2019-03-03T07:02:02.993Z,86.63
2019-03-03T07:04:33.554Z,86.63
2019-03-03T07:07:04.011Z,86.58
2019-03-03T07:09:34.636Z,86.62
2019-03-03T07:12:05.323Z,86.61
2019-03-03T07:14:35.755Z,86.66
2019-03-03T07:17:07.109Z,86.61
2019-03-03T07:19:37.539Z,86.76
2019-03-03T07:24:49.243Z,86.75
2019-03-03T07:27:19.866Z,86.76
2019-03-03T07:29:50.950Z,86.82
2019-03-03T07:32:21.344Z,86.96
2019-03-03T07:34:58.645Z,86.97
2019-03-03T07:37:30.348Z,86.98
2019-03-03T07:40:00.936Z,86.96
2019-03-03T07:42:31.386Z,86.90
2019-03-03T07:45:04.571Z,86.86
2019-03-03T07:47:34.999Z,86.85
2019-03-03T07:50:06.233Z,86.83
2019-03-03T07:52:36.841Z,86.79
2019-03-03T07:55:07.889Z,86.77
2019-03-03T07:57:38.770Z,86.72
2019-03-03T08:00:12.878Z,86.73
2019-03-03T08:02:43.167Z,86.71
2019-03-03T08:05:13.645Z,86.73
2019-03-03T08:07:46.683Z,86.63
2019-03-03T08:10:17.077Z,86.55
2019-03-03T08:12:47.617Z,86.45
2019-03-03T08:15:18.250Z,86.35
2019-03-03T08:17:48.500Z,86.26
2019-03-03T08:20:18.709Z,86.14
2019-03-03T08:22:48.909Z,86.06
2019-03-03T08:25:19.210Z,86.00
2019-03-03T08:27:49.533Z,85.97
2019-03-03T08:30:19.870Z,85.96
2019-03-03T08:32:50.145Z,86.00
2019-03-03T08:35:20.444Z,86.05
2019-03-03T08:37:50.807Z,86.18
2019-03-03T08:40:20.858Z,86.34
2019-03-03T08:43:00.204Z,86.44
2019-03-03T08:46:03.789Z,86.53
2019-03-03T08:48:58.689Z,86.53
2019-03-03T08:51:50.805Z,86.55
2019-03-03T08:54:29.946Z,86.53
2019-03-03T08:57:17.629Z,86.46
2019-03-03T09:00:15.781Z,86.52
2019-03-03T09:02:55.942Z,86.56
2019-03-03T09:05:34.853Z,86.61
2019-03-03T09:08:27.025Z,86.55
2019-03-03T09:11:25.479Z,86.52
2019-03-03T09:14:24.516Z,86.54
2019-03-03T09:17:22.510Z,86.47
2019-03-03T09:20:07.155Z,86.41
2019-03-03T09:22:56.269Z,86.46
2019-03-03T09:25:48.546Z,86.51
2019-03-03T09:28:34.166Z,86.46
2019-03-03T09:31:15.160Z,86.40
2019-03-03T09:34:04.247Z,86.37
2019-03-03T09:36:51.866Z,86.36
2019-03-03T09:39:46.867Z,86.40
2019-03-03T09:42:31.993Z,86.52
2019-03-03T09:45:09.423Z,86.51
2019-03-03T09:48:04.674Z,86.51
2019-03-03T09:51:05.023Z,86.56
2019-03-03T09:53:56.213Z,86.49
2019-03-03T09:56:34.581Z,86.41
2019-03-03T09:59:32.985Z,86.36
2019-03-03T10:02:33.892Z,86.31
2019-03-03T10:05:24.924Z,86.27
2019-03-03T10:08:03.885Z,86.24
2019-03-03T10:10:45.144Z,86.25
2019-03-03T10:13:46.156Z,86.16
2019-03-03T10:16:23.791Z,86.16
2019-03-03T10:19:07.155Z,86.09
2019-03-03T10:21:44.026Z,86.10
2019-03-03T10:24:24.356Z,85.97
2019-03-03T10:27:25.615Z,85.81
2019-03-03T10:30:10.659Z,85.80
2019-03-03T10:32:59.380Z,85.66
2019-03-03T10:35:44.591Z,85.81
2019-03-03T10:38:52.022Z,85.75
2019-03-03T10:41:34.419Z,85.57
2019-03-03T10:44:13.309Z,85.59
2019-03-03T10:46:58.785Z,85.64
2019-03-03T10:50:03.297Z,85.61
2019-03-03T10:53:10.607Z,85.42
2019-03-03T10:55:58.319Z,85.28
2019-03-03T10:58:46.708Z,85.38
2019-03-03T11:01:25.373Z,85.44
2019-03-03T11:04:08.364Z,85.41
2019-03-03T11:06:57.540Z,85.34
2019-03-03T11:09:46.121Z,85.30
2019-03-03T11:12:26.903Z,85.27
2019-03-03T11:15:18.053Z,85.20
2019-03-03T11:18:01.994Z,85.04
2019-03-03T11:20:51.190Z,85.00
2019-03-03T11:23:53.594Z,85.16
2019-03-03T11:27:04.798Z,85.14
2019-03-03T11:30:09.133Z,85.13
2019-03-03T11:32:56.904Z,85.09
2019-03-03T11:35:49.454Z,85.16
2019-03-03T11:38:36.321Z,85.07
2019-03-03T11:41:13.920Z,85.07
2019-03-03T11:44:06.119Z,85.20
2019-03-03T11:46:49.674Z,85.15
2019-03-03T11:49:41.659Z,85.12
2019-03-03T11:52:25.361Z,85.12
2019-03-03T11:55:02.525Z,85.15
2019-03-03T11:57:46.254Z,85.18
2019-03-03T12:00:44.371Z,85.22
2019-03-03T12:03:33.608Z,85.23
2019-03-03T12:06:34.956Z,85.25
2019-03-03T12:09:37.262Z,85.26
2019-03-03T12:12:25.293Z,85.20
2019-03-03T12:15:09.720Z,85.15
2019-03-03T12:17:51.525Z,85.07
2019-03-03T12:20:31.521Z,84.96
2019-03-03T12:23:17.230Z,85.02
2019-03-03T12:26:04.901Z,85.08
2019-03-03T12:29:02.812Z,85.06
2019-03-03T12:31:53.326Z,85.22
2019-03-03T12:34:42.464Z,85.37
2019-03-03T12:37:30.637Z,85.33
2019-03-03T12:40:31.874Z,85.35
2019-03-03T12:43:22.834Z,85.40
2019-03-03T12:46:10.755Z,85.46
2019-03-03T12:48:58.574Z,85.48
2019-03-03T12:51:46.263Z,85.49
2019-03-03T12:54:38.475Z,85.40
2019-03-03T12:57:36.605Z,85.31
2019-03-03T13:00:35.764Z,85.20
2019-03-03T13:03:24.789Z,85.30
2019-03-03T13:06:09.852Z,85.38
2019-03-03T13:08:59.330Z,85.41
2019-03-03T13:11:41.431Z,85.47
2019-03-03T13:14:29.490Z,85.39
2019-03-03T13:17:18.678Z,85.37
2019-03-03T13:20:09.094Z,85.42
2019-03-03T13:22:57.382Z,85.40
2019-03-03T13:25:48.040Z,85.43
2019-03-03T13:28:36.364Z,85.38
2019-03-03T13:31:24.307Z,85.38
2019-03-03T13:34:04.270Z,85.43
2019-03-03T13:37:03.886Z,85.49
2019-03-03T13:39:43.367Z,85.41
2019-03-03T13:42:31.048Z,85.45
2019-03-03T13:45:01.669Z,85.45
2019-03-03T13:47:31.994Z,85.51
2019-03-03T13:50:02.241Z,85.63
2019-03-03T13:52:32.317Z,85.62
2019-03-03T13:55:02.530Z,85.59
2019-03-03T13:57:32.798Z,85.45
2019-03-03T14:00:03.049Z,85.53
2019-03-03T14:02:33.223Z,85.56
2019-03-03T14:05:03.417Z,85.56
2019-03-03T14:07:33.576Z,85.56
2019-03-03T14:10:04.847Z,85.64
2019-03-03T14:12:35.090Z,85.74
2019-03-03T14:15:06.391Z,85.83
2019-03-03T14:17:36.640Z,86.01
2019-03-03T14:20:09.584Z,86.17
2019-03-03T14:22:39.831Z,86.30
2019-03-03T14:25:10.314Z,86.32
2019-03-03T14:27:41.093Z,86.49
2019-03-03T14:30:14.607Z,86.57
2019-03-03T14:32:44.863Z,86.56
2019-03-03T14:35:16.814Z,86.59
2019-03-03T14:37:50.302Z,86.65
2019-03-03T14:40:21.634Z,86.65
2019-03-03T14:42:53.083Z,86.81
2019-03-03T14:45:23.680Z,86.86
2019-03-03T14:47:54.010Z,86.88
2019-03-03T14:50:24.550Z,86.88
2019-03-03T14:52:55.053Z,86.95
2019-03-03T14:55:26.014Z,87.02
2019-03-03T14:57:56.243Z,87.08
2019-03-03T15:00:29.769Z,87.16
2019-03-03T15:03:06.037Z,87.18
2019-03-03T15:05:36.290Z,87.19
2019-03-03T15:08:08.153Z,87.38
2019-03-03T15:10:38.924Z,87.43
2019-03-03T15:13:09.211Z,87.43
2019-03-03T15:15:39.778Z,87.38
2019-03-03T15:18:10.068Z,87.43
2019-03-03T15:20:40.350Z,87.43
2019-03-03T15:23:10.707Z,87.43
2019-03-03T15:25:41.002Z,87.39
2019-03-03T15:28:11.316Z,87.38
2019-03-03T15:30:41.628Z,87.37
2019-03-03T15:33:11.975Z,87.34
2019-03-03T15:35:42.186Z,87.33
2019-03-03T15:38:12.455Z,87.35
2019-03-03T15:40:42.683Z,87.36
2019-03-03T15:43:12.939Z,87.33
2019-03-03T15:45:43.389Z,87.36
2019-03-03T15:48:13.564Z,87.36
2019-03-03T15:50:43.978Z,87.43
2019-03-03T15:53:14.247Z,87.42
2019-03-03T15:55:44.599Z,87.39
2019-03-03T15:58:14.802Z,87.30
2019-03-03T16:00:45.155Z,87.30
2019-03-03T16:03:15.334Z,87.32
2019-03-03T16:05:45.629Z,87.29
2019-03-03T16:08:15.887Z,87.26
2019-03-03T16:10:46.092Z,87.25
2019-03-03T16:13:16.298Z,87.28
2019-03-03T16:15:46.581Z,87.32
2019-03-03T16:18:16.777Z,87.36
2019-03-03T16:20:48.176Z,87.40
2019-03-03T16:23:18.365Z,87.44
2019-03-03T16:25:49.938Z,87.44
2019-03-03T16:28:20.418Z,87.43
2019-03-03T16:30:50.894Z,87.42
2019-03-03T16:33:21.185Z,87.47
2019-03-03T16:35:51.626Z,87.48
2019-03-03T16:38:21.953Z,87.54
2019-03-03T16:40:52.111Z,87.56
2019-03-03T16:43:22.573Z,87.61
2019-03-03T16:45:52.806Z,87.65
2019-03-03T16:48:22.997Z,87.68
2019-03-03T16:50:53.249Z,87.75
2019-03-03T16:53:23.421Z,87.77
2019-03-03T16:55:53.672Z,87.77
2019-03-03T16:58:24.051Z,87.85
2019-03-03T17:00:54.237Z,87.85
2019-03-03T17:03:24.564Z,87.85
2019-03-03T17:05:54.760Z,87.91
2019-03-03T17:08:24.931Z,87.91
2019-03-03T17:10:55.299Z,87.92
2019-03-03T17:13:25.552Z,88.00
2019-03-03T17:15:55.877Z,88.12
2019-03-03T17:18:26.110Z,88.06
2019-03-03T17:20:56.323Z,88.12
2019-03-03T17:23:26.552Z,88.23
2019-03-03T17:25:56.933Z,88.18
2019-03-03T17:28:27.087Z,88.14
2019-03-03T17:30:57.534Z,88.11
2019-03-03T17:33:27.796Z,88.06
2019-03-03T17:35:57.936Z,88.03
2019-03-03T17:38:28.018Z,88.02
2019-03-03T17:40:58.192Z,88.03
2019-03-03T17:43:28.483Z,87.96
2019-03-03T17:45:58.647Z,87.96
2019-03-03T17:48:28.889Z,88.05
2019-03-03T17:50:59.060Z,88.03
2019-03-03T17:53:29.228Z,88.07
2019-03-03T17:55:59.474Z,88.08
2019-03-03T17:58:29.921Z,88.10
2019-03-03T18:01:00.138Z,88.07
2019-03-03T18:03:30.350Z,88.01
2019-03-03T18:06:00.628Z,88.00
2019-03-03T18:08:30.812Z,87.95
2019-03-03T18:11:01.099Z,87.91
2019-03-03T18:13:31.386Z,87.89
2019-03-03T18:16:03.080Z,87.86
2019-03-03T18:18:33.328Z,87.86
2019-03-03T18:21:03.617Z,87.83
2019-03-03T18:23:33.932Z,87.79
2019-03-03T18:26:04.137Z,87.80
2019-03-03T18:28:34.692Z,87.79
2019-03-03T18:31:05.512Z,87.76
2019-03-03T18:33:36.271Z,87.70
2019-03-03T18:36:07.305Z,87.65
2019-03-03T18:38:38.281Z,87.59
2019-03-03T18:41:09.043Z,87.53
2019-03-03T18:43:39.478Z,87.50
2019-03-03T18:46:10.163Z,87.47
2019-03-03T18:48:40.625Z,87.48
2019-03-03T18:51:11.203Z,87.46
2019-03-03T18:53:41.704Z,87.44
2019-03-03T18:56:12.358Z,87.40
2019-03-03T18:58:42.974Z,87.35
2019-03-03T19:01:13.635Z,87.31
2019-03-03T19:03:44.431Z,87.26
2019-03-03T19:06:14.963Z,87.16
2019-03-03T19:08:45.659Z,87.15
2019-03-03T19:11:16.237Z,87.08
2019-03-03T19:13:46.733Z,87.05
2019-03-03T19:16:18.010Z,87.03
2019-03-03T19:18:48.634Z,86.98
2019-03-03T19:21:19.341Z,86.92
2019-03-03T19:23:52.157Z,86.84
2019-03-03T19:26:22.893Z,86.77
2019-03-03T19:28:53.516Z,86.72
2019-03-03T19:31:24.591Z,86.63
2019-03-03T19:33:56.820Z,86.60
2019-03-03T19:36:27.273Z,86.51
2019-03-03T19:38:57.758Z,86.39
2019-03-03T19:41:28.871Z,86.30
2019-03-03T19:43:59.463Z,86.21
2019-03-03T19:46:31.137Z,86.17
2019-03-03T19:49:01.841Z,86.09
2019-03-03T19:51:32.408Z,86.02
2019-03-03T19:56:42.683Z,85.75
2019-03-03T20:01:29.995Z,85.55
2019-03-03T20:04:02.402Z,85.62
2019-03-03T20:06:33.331Z,85.66
2019-03-03T20:09:04.617Z,85.70
2019-03-03T20:11:35.708Z,85.74
2019-03-03T20:14:06.168Z,85.73
2019-03-03T20:16:36.706Z,85.74
2019-03-03T20:19:07.541Z,85.70
2019-03-03T20:21:38.040Z,85.72
2019-03-03T20:24:08.671Z,85.73
2019-03-03T20:26:41.048Z,85.63
2019-03-03T20:29:11.537Z,85.61
2019-03-03T20:31:42.070Z,85.60
2019-03-03T20:34:12.814Z,85.54
2019-03-03T20:36:43.569Z,85.51
2019-03-03T20:39:14.189Z,85.46
2019-03-03T20:41:44.808Z,85.39
2019-03-03T20:44:15.104Z,85.33
2019-03-03T20:46:45.350Z,85.29
2019-03-03T20:49:15.423Z,85.29
2019-03-03T20:51:45.705Z,85.31
2019-03-03T20:54:15.938Z,85.35
2019-03-03T20:56:46.027Z,85.40
2019-03-03T20:59:16.465Z,85.46
2019-03-03T21:01:46.975Z,85.49
2019-03-03T21:04:17.613Z,85.49
2019-03-03T21:06:48.277Z,85.44
2019-03-03T21:09:18.862Z,85.36
2019-03-03T21:11:49.425Z,85.29
2019-03-03T21:14:19.997Z,85.22
2019-03-03T21:16:50.456Z,85.13
2019-03-03T21:19:21.042Z,85.04
2019-03-03T21:21:51.816Z,85.21
2019-03-03T21:24:22.228Z,85.34
2019-03-03T21:26:52.495Z,85.42
2019-03-03T21:29:23.726Z,85.57
2019-03-03T21:31:56.618Z,85.70
2019-03-03T21:34:26.773Z,85.82
2019-03-03T21:36:56.994Z,85.88
2019-03-03T21:39:27.239Z,85.91
2019-03-03T21:41:57.398Z,85.92
2019-03-03T21:44:27.944Z,85.90
2019-03-03T21:46:58.156Z,85.88
2019-03-03T21:49:28.276Z,85.86
2019-03-03T21:51:58.336Z,85.83
2019-03-03T21:54:28.496Z,85.79
2019-03-03T21:56:58.679Z,85.73
2019-03-03T21:59:29.034Z,85.65
2019-03-03T22:01:59.391Z,85.54
2019-03-03T22:04:29.627Z,85.44
2019-03-03T22:07:00.033Z,85.35
2019-03-03T22:09:30.332Z,85.29
2019-03-03T22:12:00.553Z,85.23
2019-03-03T22:14:30.893Z,85.17
2019-03-03T22:17:01.135Z,85.07
2019-03-03T22:19:31.315Z,84.92
2019-03-03T22:22:01.391Z,84.93
2019-03-03T22:24:31.577Z,85.02
2019-03-03T22:27:01.716Z,84.95
2019-03-03T22:29:32.003Z,84.89
2019-03-03T22:32:02.225Z,84.74
2019-03-03T22:34:32.495Z,84.67
2019-03-03T22:37:02.817Z,84.63
2019-03-03T22:39:32.999Z,84.56
2019-03-03T22:42:03.314Z,84.55
2019-03-03T22:44:33.419Z,84.57
2019-03-03T22:47:03.595Z,84.53
2019-03-03T22:49:33.707Z,84.56
2019-03-03T22:52:03.886Z,84.49
2019-03-03T22:54:34.124Z,84.42
2019-03-03T22:57:04.397Z,84.34
2019-03-03T22:59:34.597Z,84.24
2019-03-03T23:02:04.892Z,84.22
2019-03-03T23:04:48.225Z,84.17
2019-03-03T23:07:48.787Z,84.09
2019-03-03T23:11:11.915Z,83.99
2019-03-03T23:14:24.354Z,83.87
2019-03-03T23:18:11.745Z,83.84
2019-03-03T23:21:14.603Z,83.85
2019-03-03T23:24:27.597Z,83.76
2019-03-03T23:26:57.769Z,83.77
2019-03-03T23:29:27.947Z,83.73
2019-03-03T23:31:58.046Z,83.71
2019-03-03T23:34:28.177Z,83.67
2019-03-03T23:36:58.315Z,83.42
2019-03-03T23:39:28.452Z,83.25
2019-03-03T23:41:58.530Z,83.16
2019-03-03T23:44:28.767Z,83.14
2019-03-03T23:46:59.002Z,83.13
2019-03-03T23:49:29.125Z,83.08
2019-03-03T23:51:59.310Z,83.04
2019-03-03T23:54:29.628Z,82.96
2019-03-03T23:56:59.793Z,82.97
2019-03-03T23:59:30.051Z,82.88
